aviador You're here:

RJOO Decoded Metar

OSAKA in JAPAN
Report Time2015-07-07 10:00:00
UTC Time2015-07-07 11:01:15
Flight Rules vfr VFR
Wind070° at 05 kt
W.Decomp.*RWY 14: 2.3 kt HW 4.5 kt LCW
W.Rank070° ranks 8
Current wind is below 070° avg. (7.8)
Visibility9999 m
Phenomena:N/A
Clouds:Few 010 Hf
Scattered 035 Hf
Broken 045 Hf
Expected CloudBase > 1,200 ft AGL from Temp-Dew spread
Ceiling4,500 ft
Temp24°C (ISA +9)
Dew Point21°C (83% RH)
QNH1012 hPa
Density Alt1,467 ft
Elevation49 ft
Report Wrong Elevation
Raw Report
RJOO 071000Z 07005KT 020V090 9999 FEW010 SCT035 BKN045 24/21 Q1012
RMK 1ST010 3CU035 5SC045 A2990=

Extra information for RJOO:More info

Metar Taf Metar & Taf Last 4 Metars F.Rules Stats Wind Profile Meteogram Temp Stats Airport Information Weather charts Add Link Nearby VenuesMetar ALERT Operation Metar Decoded Social comments